sensor_id;sensor_type;location;lat;lon;timestamp;P1;durP1;ratioP1;P2;durP2;ratioP2
60880;SDS011;46729;43.010;24.320;2022-08-07T00:00:32;6.93;;;5.13;;
60880;SDS011;46729;43.010;24.320;2022-08-07T00:02:58;24.50;;;14.27;;
60880;SDS011;46729;43.010;24.320;2022-08-07T00:05:24;7.30;;;5.70;;
60880;SDS011;46729;43.010;24.320;2022-08-07T00:07:50;12.82;;;6.78;;
60880;SDS011;46729;43.010;24.320;2022-08-07T00:10:16;23.58;;;13.10;;
60880;SDS011;46729;43.010;24.320;2022-08-07T00:12:42;7.88;;;5.40;;
60880;SDS011;46729;43.010;24.320;2022-08-07T00:15:08;6.72;;;5.63;;
60880;SDS011;46729;43.010;24.320;2022-08-07T00:17:35;5.93;;;5.00;;
60880;SDS011;46729;43.010;24.320;2022-08-07T00:20:01;10.93;;;5.93;;
60880;SDS011;46729;43.010;24.320;2022-08-07T00:22:27;7.85;;;6.53;;
60880;SDS011;46729;43.010;24.320;2022-08-07T00:24:52;9.65;;;5.82;;
60880;SDS011;46729;43.010;24.320;2022-08-07T00:27:18;7.32;;;5.85;;
60880;SDS011;46729;43.010;24.320;2022-08-07T00:29:44;7.13;;;6.43;;
60880;SDS011;46729;43.010;24.320;2022-08-07T00:32:09;8.57;;;6.50;;
60880;SDS011;46729;43.010;24.320;2022-08-07T00:34:36;12.00;;;6.68;;
60880;SDS011;46729;43.010;24.320;2022-08-07T00:37:02;7.93;;;6.82;;
60880;SDS011;46729;43.010;24.320;2022-08-07T00:39:27;9.55;;;7.00;;
60880;SDS011;46729;43.010;24.320;2022-08-07T00:41:57;9.80;;;7.22;;
60880;SDS011;46729;43.010;24.320;2022-08-07T00:44:23;8.15;;;7.28;;
60880;SDS011;46729;43.010;24.320;2022-08-07T00:46:49;8.05;;;6.70;;
60880;SDS011;46729;43.010;24.320;2022-08-07T00:49:15;22.90;;;7.53;;
60880;SDS011;46729;43.010;24.320;2022-08-07T00:51:41;9.45;;;7.68;;
60880;SDS011;46729;43.010;24.320;2022-08-07T00:54:07;8.93;;;7.68;;
60880;SDS011;46729;43.010;24.320;2022-08-07T00:56:33;8.23;;;7.30;;
60880;SDS011;46729;43.010;24.320;2022-08-07T00:58:59;8.38;;;7.03;;
60880;SDS011;46729;43.010;24.320;2022-08-07T01:01:26;11.52;;;7.40;;
60880;SDS011;46729;43.010;24.320;2022-08-07T01:03:52;11.75;;;7.60;;
60880;SDS011;46729;43.010;24.320;2022-08-07T01:06:18;8.85;;;7.47;;
60880;SDS011;46729;43.010;24.320;2022-08-07T01:08:44;9.88;;;6.82;;
60880;SDS011;46729;43.010;24.320;2022-08-07T01:11:11;7.78;;;6.80;;
60880;SDS011;46729;43.010;24.320;2022-08-07T01:13:38;9.23;;;7.35;;
60880;SDS011;46729;43.010;24.320;2022-08-07T01:16:05;9.23;;;7.35;;
60880;SDS011;46729;43.010;24.320;2022-08-07T01:18:31;11.27;;;6.63;;
60880;SDS011;46729;43.010;24.320;2022-08-07T01:21:11;9.88;;;6.78;;
60880;SDS011;46729;43.010;24.320;2022-08-07T01:26:06;11.02;;;6.90;;
60880;SDS011;46729;43.010;24.320;2022-08-07T01:28:33;7.40;;;6.53;;
60880;SDS011;46729;43.010;24.320;2022-08-07T01:31:00;12.27;;;6.53;;
60880;SDS011;46729;43.010;24.320;2022-08-07T01:33:26;10.38;;;6.28;;
60880;SDS011;46729;43.010;24.320;2022-08-07T01:35:52;8.05;;;6.65;;
60880;SDS011;46729;43.010;24.320;2022-08-07T01:38:18;7.78;;;6.10;;
60880;SDS011;46729;43.010;24.320;2022-08-07T01:40:45;9.48;;;6.72;;
60880;SDS011;46729;43.010;24.320;2022-08-07T01:43:13;8.73;;;6.95;;
60880;SDS011;46729;43.010;24.320;2022-08-07T01:45:40;12.93;;;6.38;;
60880;SDS011;46729;43.010;24.320;2022-08-07T01:48:07;8.50;;;6.28;;
60880;SDS011;46729;43.010;24.320;2022-08-07T01:50:33;8.05;;;6.55;;
60880;SDS011;46729;43.010;24.320;2022-08-07T01:53:01;9.55;;;6.55;;
60880;SDS011;46729;43.010;24.320;2022-08-07T01:55:36;7.15;;;6.45;;
60880;SDS011;46729;43.010;24.320;2022-08-07T01:58:07;10.32;;;6.38;;
60880;SDS011;46729;43.010;24.320;2022-08-07T02:00:35;7.97;;;6.00;;
60880;SDS011;46729;43.010;24.320;2022-08-07T02:03:08;7.00;;;5.78;;
60880;SDS011;46729;43.010;24.320;2022-08-07T02:05:42;7.13;;;6.40;;
60880;SDS011;46729;43.010;24.320;2022-08-07T02:08:12;9.70;;;7.38;;
60880;SDS011;46729;43.010;24.320;2022-08-07T02:10:40;7.30;;;6.60;;
60880;SDS011;46729;43.010;24.320;2022-08-07T02:13:07;8.00;;;6.63;;
60880;SDS011;46729;43.010;24.320;2022-08-07T02:15:35;7.75;;;6.95;;
60880;SDS011;46729;43.010;24.320;2022-08-07T02:18:03;9.65;;;6.65;;
60880;SDS011;46729;43.010;24.320;2022-08-07T02:20:31;12.93;;;7.13;;
60880;SDS011;46729;43.010;24.320;2022-08-07T02:23:01;7.55;;;6.65;;
60880;SDS011;46729;43.010;24.320;2022-08-07T02:25:31;8.13;;;7.13;;
60880;SDS011;46729;43.010;24.320;2022-08-07T02:28:00;8.82;;;6.97;;
60880;SDS011;46729;43.010;24.320;2022-08-07T02:30:27;8.23;;;7.40;;
60880;SDS011;46729;43.010;24.320;2022-08-07T02:32:54;9.90;;;7.13;;
60880;SDS011;46729;43.010;24.320;2022-08-07T02:35:21;9.40;;;7.35;;
60880;SDS011;46729;43.010;24.320;2022-08-07T02:37:48;8.68;;;7.70;;
60880;SDS011;46729;43.010;24.320;2022-08-07T02:40:14;9.82;;;7.78;;
60880;SDS011;46729;43.010;24.320;2022-08-07T02:42:39;7.95;;;7.15;;
60880;SDS011;46729;43.010;24.320;2022-08-07T02:45:07;9.70;;;7.43;;
60880;SDS011;46729;43.010;24.320;2022-08-07T02:47:36;9.23;;;7.55;;
60880;SDS011;46729;43.010;24.320;2022-08-07T02:50:02;8.40;;;6.95;;
60880;SDS011;46729;43.010;24.320;2022-08-07T02:52:31;8.55;;;7.13;;
60880;SDS011;46729;43.010;24.320;2022-08-07T02:55:02;9.00;;;7.97;;
60880;SDS011;46729;43.010;24.320;2022-08-07T02:57:32;9.85;;;7.40;;
60880;SDS011;46729;43.010;24.320;2022-08-07T03:00:02;10.43;;;7.60;;
60880;SDS011;46729;43.010;24.320;2022-08-07T03:02:29;8.05;;;7.22;;
60880;SDS011;46729;43.010;24.320;2022-08-07T03:04:55;10.82;;;8.20;;
60880;SDS011;46729;43.010;24.320;2022-08-07T03:07:24;8.63;;;7.70;;
60880;SDS011;46729;43.010;24.320;2022-08-07T03:09:51;10.63;;;7.95;;
60880;SDS011;46729;43.010;24.320;2022-08-07T03:12:17;10.32;;;7.93;;
60880;SDS011;46729;43.010;24.320;2022-08-07T03:14:43;9.25;;;7.03;;
60880;SDS011;46729;43.010;24.320;2022-08-07T03:17:09;15.00;;;8.15;;
60880;SDS011;46729;43.010;24.320;2022-08-07T03:19:35;10.90;;;7.20;;
60880;SDS011;46729;43.010;24.320;2022-08-07T03:22:02;9.45;;;7.90;;
60880;SDS011;46729;43.010;24.320;2022-08-07T03:24:29;8.68;;;7.78;;
60880;SDS011;46729;43.010;24.320;2022-08-07T03:26:58;10.23;;;8.25;;
60880;SDS011;46729;43.010;24.320;2022-08-07T03:29:27;8.40;;;7.50;;
60880;SDS011;46729;43.010;24.320;2022-08-07T03:31:58;9.43;;;8.32;;
60880;SDS011;46729;43.010;24.320;2022-08-07T03:34:26;11.55;;;8.18;;
60880;SDS011;46729;43.010;24.320;2022-08-07T03:36:53;10.70;;;8.52;;
60880;SDS011;46729;43.010;24.320;2022-08-07T03:39:20;9.95;;;7.75;;
60880;SDS011;46729;43.010;24.320;2022-08-07T03:41:48;13.82;;;8.40;;
60880;SDS011;46729;43.010;24.320;2022-08-07T03:44:14;13.68;;;8.65;;
60880;SDS011;46729;43.010;24.320;2022-08-07T03:46:39;12.38;;;8.00;;
60880;SDS011;46729;43.010;24.320;2022-08-07T03:49:07;12.82;;;7.93;;
60880;SDS011;46729;43.010;24.320;2022-08-07T03:51:33;11.20;;;8.35;;
60880;SDS011;46729;43.010;24.320;2022-08-07T03:54:00;11.32;;;8.27;;
60880;SDS011;46729;43.010;24.320;2022-08-07T03:56:26;10.05;;;7.68;;
60880;SDS011;46729;43.010;24.320;2022-08-07T03:58:55;9.38;;;7.70;;
60880;SDS011;46729;43.010;24.320;2022-08-07T04:01:20;13.20;;;7.90;;
60880;SDS011;46729;43.010;24.320;2022-08-07T04:03:48;11.23;;;8.25;;
60880;SDS011;46729;43.010;24.320;2022-08-07T04:06:14;8.02;;;7.22;;
60880;SDS011;46729;43.010;24.320;2022-08-07T04:08:40;12.75;;;8.35;;
60880;SDS011;46729;43.010;24.320;2022-08-07T04:11:09;9.38;;;8.18;;
60880;SDS011;46729;43.010;24.320;2022-08-07T04:13:35;9.63;;;7.57;;
60880;SDS011;46729;43.010;24.320;2022-08-07T04:16:01;9.25;;;8.10;;
60880;SDS011;46729;43.010;24.320;2022-08-07T04:18:27;12.77;;;8.75;;
60880;SDS011;46729;43.010;24.320;2022-08-07T04:20:53;11.25;;;7.75;;
60880;SDS011;46729;43.010;24.320;2022-08-07T04:23:19;9.13;;;7.95;;
60880;SDS011;46729;43.010;24.320;2022-08-07T04:25:45;10.38;;;7.90;;
60880;SDS011;46729;43.010;24.320;2022-08-07T04:28:12;10.57;;;7.68;;
60880;SDS011;46729;43.010;24.320;2022-08-07T04:30:38;11.60;;;7.82;;
60880;SDS011;46729;43.010;24.320;2022-08-07T04:33:05;9.13;;;7.38;;
60880;SDS011;46729;43.010;24.320;2022-08-07T04:35:33;24.52;;;9.77;;
60880;SDS011;46729;43.010;24.320;2022-08-07T04:38:02;9.43;;;7.65;;
60880;SDS011;46729;43.010;24.320;2022-08-07T04:40:29;12.23;;;7.70;;
60880;SDS011;46729;43.010;24.320;2022-08-07T04:42:55;14.80;;;8.60;;
60880;SDS011;46729;43.010;24.320;2022-08-07T04:45:22;9.15;;;8.02;;
60880;SDS011;46729;43.010;24.320;2022-08-07T04:47:59;9.07;;;8.05;;
60880;SDS011;46729;43.010;24.320;2022-08-07T04:50:40;8.57;;;7.38;;
60880;SDS011;46729;43.010;24.320;2022-08-07T04:55:58;12.18;;;7.40;;
60880;SDS011;46729;43.010;24.320;2022-08-07T04:59:03;9.15;;;7.57;;
60880;SDS011;46729;43.010;24.320;2022-08-07T05:01:34;10.90;;;7.45;;
60880;SDS011;46729;43.010;24.320;2022-08-07T05:09:08;11.63;;;7.65;;
60880;SDS011;46729;43.010;24.320;2022-08-07T05:11:43;9.13;;;7.13;;
60880;SDS011;46729;43.010;24.320;2022-08-07T05:14:13;10.45;;;7.60;;
60880;SDS011;46729;43.010;24.320;2022-08-07T05:16:44;8.98;;;7.35;;
60880;SDS011;46729;43.010;24.320;2022-08-07T05:19:14;10.13;;;7.28;;
60880;SDS011;46729;43.010;24.320;2022-08-07T05:21:43;8.13;;;6.53;;
60880;SDS011;46729;43.010;24.320;2022-08-07T05:24:14;9.90;;;7.45;;
60880;SDS011;46729;43.010;24.320;2022-08-07T05:26:41;10.68;;;7.35;;
60880;SDS011;46729;43.010;24.320;2022-08-07T05:29:08;8.23;;;7.35;;
60880;SDS011;46729;43.010;24.320;2022-08-07T05:31:38;10.77;;;7.82;;
60880;SDS011;46729;43.010;24.320;2022-08-07T05:34:06;9.07;;;6.80;;
60880;SDS011;46729;43.010;24.320;2022-08-07T05:36:35;7.22;;;6.53;;
60880;SDS011;46729;43.010;24.320;2022-08-07T05:39:03;10.60;;;7.65;;
60880;SDS011;46729;43.010;24.320;2022-08-07T05:41:30;11.48;;;6.80;;
60880;SDS011;46729;43.010;24.320;2022-08-07T05:43:56;8.77;;;7.03;;
60880;SDS011;46729;43.010;24.320;2022-08-07T05:46:22;10.93;;;7.22;;
60880;SDS011;46729;43.010;24.320;2022-08-07T05:48:52;15.77;;;8.07;;
60880;SDS011;46729;43.010;24.320;2022-08-07T05:51:18;10.02;;;8.05;;
60880;SDS011;46729;43.010;24.320;2022-08-07T05:53:45;8.10;;;7.18;;
60880;SDS011;46729;43.010;24.320;2022-08-07T05:56:11;13.00;;;8.10;;
60880;SDS011;46729;43.010;24.320;2022-08-07T05:58:39;11.65;;;8.57;;
60880;SDS011;46729;43.010;24.320;2022-08-07T06:01:06;13.35;;;9.82;;
60880;SDS011;46729;43.010;24.320;2022-08-07T06:03:34;24.00;;;13.50;;
60880;SDS011;46729;43.010;24.320;2022-08-07T06:06:01;22.15;;;14.88;;
60880;SDS011;46729;43.010;24.320;2022-08-07T06:08:27;24.90;;;12.82;;
60880;SDS011;46729;43.010;24.320;2022-08-07T06:10:53;17.80;;;12.07;;
60880;SDS011;46729;43.010;24.320;2022-08-07T06:13:19;24.60;;;13.52;;
60880;SDS011;46729;43.010;24.320;2022-08-07T06:15:46;29.33;;;13.93;;
60880;SDS011;46729;43.010;24.320;2022-08-07T06:18:13;20.55;;;12.68;;
60880;SDS011;46729;43.010;24.320;2022-08-07T06:20:40;19.85;;;12.73;;
60880;SDS011;46729;43.010;24.320;2022-08-07T06:23:08;23.98;;;14.15;;
60880;SDS011;46729;43.010;24.320;2022-08-07T06:25:34;26.42;;;16.67;;
60880;SDS011;46729;43.010;24.320;2022-08-07T06:28:07;23.48;;;10.90;;
60880;SDS011;46729;43.010;24.320;2022-08-07T06:30:35;13.85;;;9.85;;
60880;SDS011;46729;43.010;24.320;2022-08-07T06:33:02;17.45;;;11.25;;
60880;SDS011;46729;43.010;24.320;2022-08-07T06:35:29;13.80;;;10.38;;
60880;SDS011;46729;43.010;24.320;2022-08-07T06:37:55;16.40;;;9.05;;
60880;SDS011;46729;43.010;24.320;2022-08-07T06:40:22;17.20;;;10.73;;
60880;SDS011;46729;43.010;24.320;2022-08-07T06:42:48;18.55;;;12.20;;
60880;SDS011;46729;43.010;24.320;2022-08-07T06:45:16;23.27;;;14.30;;
60880;SDS011;46729;43.010;24.320;2022-08-07T06:47:44;21.77;;;14.73;;
60880;SDS011;46729;43.010;24.320;2022-08-07T06:50:11;14.35;;;10.93;;
60880;SDS011;46729;43.010;24.320;2022-08-07T06:52:39;15.77;;;9.80;;
60880;SDS011;46729;43.010;24.320;2022-08-07T06:55:26;17.17;;;12.40;;
60880;SDS011;46729;43.010;24.320;2022-08-07T06:57:56;23.85;;;14.57;;
60880;SDS011;46729;43.010;24.320;2022-08-07T07:00:24;35.35;;;21.73;;
60880;SDS011;46729;43.010;24.320;2022-08-07T07:02:51;19.55;;;11.80;;
60880;SDS011;46729;43.010;24.320;2022-08-07T07:05:21;26.23;;;15.77;;
60880;SDS011;46729;43.010;24.320;2022-08-07T07:07:47;23.08;;;13.55;;
60880;SDS011;46729;43.010;24.320;2022-08-07T07:10:13;23.92;;;14.90;;
60880;SDS011;46729;43.010;24.320;2022-08-07T07:12:47;19.10;;;13.50;;
60880;SDS011;46729;43.010;24.320;2022-08-07T07:15:26;13.23;;;9.00;;
60880;SDS011;46729;43.010;24.320;2022-08-07T07:20:43;16.52;;;11.52;;
60880;SDS011;46729;43.010;24.320;2022-08-07T07:23:13;20.50;;;14.85;;
60880;SDS011;46729;43.010;24.320;2022-08-07T07:25:39;33.25;;;18.15;;
60880;SDS011;46729;43.010;24.320;2022-08-07T07:30:44;20.00;;;13.85;;
60880;SDS011;46729;43.010;24.320;2022-08-07T07:33:13;21.67;;;11.90;;
60880;SDS011;46729;43.010;24.320;2022-08-07T07:35:42;14.65;;;10.80;;
60880;SDS011;46729;43.010;24.320;2022-08-07T07:38:10;14.88;;;10.23;;
60880;SDS011;46729;43.010;24.320;2022-08-07T07:40:37;12.90;;;8.77;;
60880;SDS011;46729;43.010;24.320;2022-08-07T07:43:05;35.92;;;20.25;;
60880;SDS011;46729;43.010;24.320;2022-08-07T07:45:34;16.75;;;11.30;;
60880;SDS011;46729;43.010;24.320;2022-08-07T07:48:01;17.83;;;10.75;;
60880;SDS011;46729;43.010;24.320;2022-08-07T07:50:28;11.10;;;8.45;;
60880;SDS011;46729;43.010;24.320;2022-08-07T07:52:55;9.77;;;8.05;;
60880;SDS011;46729;43.010;24.320;2022-08-07T07:55:22;19.67;;;10.27;;
60880;SDS011;46729;43.010;24.320;2022-08-07T07:57:50;21.98;;;13.60;;
60880;SDS011;46729;43.010;24.320;2022-08-07T08:00:16;23.70;;;14.10;;
60880;SDS011;46729;43.010;24.320;2022-08-07T08:02:44;10.07;;;8.65;;
60880;SDS011;46729;43.010;24.320;2022-08-07T08:05:13;12.35;;;9.20;;
60880;SDS011;46729;43.010;24.320;2022-08-07T08:07:43;14.73;;;8.82;;
60880;SDS011;46729;43.010;24.320;2022-08-07T08:10:11;17.33;;;11.30;;
60880;SDS011;46729;43.010;24.320;2022-08-07T08:12:42;22.23;;;13.23;;
60880;SDS011;46729;43.010;24.320;2022-08-07T08:15:11;16.02;;;10.38;;
60880;SDS011;46729;43.010;24.320;2022-08-07T08:17:38;17.88;;;12.20;;
60880;SDS011;46729;43.010;24.320;2022-08-07T08:20:07;16.05;;;11.85;;
60880;SDS011;46729;43.010;24.320;2022-08-07T08:22:37;25.35;;;14.77;;
60880;SDS011;46729;43.010;24.320;2022-08-07T08:28:14;17.63;;;11.60;;
60880;SDS011;46729;43.010;24.320;2022-08-07T08:30:46;15.02;;;11.20;;
60880;SDS011;46729;43.010;24.320;2022-08-07T08:33:23;20.00;;;10.57;;
60880;SDS011;46729;43.010;24.320;2022-08-07T08:35:52;11.77;;;8.68;;
60880;SDS011;46729;43.010;24.320;2022-08-07T08:38:22;13.18;;;9.43;;
60880;SDS011;46729;43.010;24.320;2022-08-07T08:47:28;17.60;;;10.13;;
60880;SDS011;46729;43.010;24.320;2022-08-07T08:56:10;23.45;;;13.80;;
60880;SDS011;46729;43.010;24.320;2022-08-07T09:01:55;17.23;;;11.18;;
60880;SDS011;46729;43.010;24.320;2022-08-07T09:04:53;20.63;;;10.63;;
60880;SDS011;46729;43.010;24.320;2022-08-07T09:07:45;25.27;;;11.60;;
60880;SDS011;46729;43.010;24.320;2022-08-07T09:10:41;23.10;;;10.95;;
60880;SDS011;46729;43.010;24.320;2022-08-07T09:13:34;28.85;;;11.55;;
60880;SDS011;46729;43.010;24.320;2022-08-07T09:19:54;18.05;;;11.52;;
60880;SDS011;46729;43.010;24.320;2022-08-07T09:28:34;19.90;;;11.70;;
60880;SDS011;46729;43.010;24.320;2022-08-07T09:31:14;16.05;;;9.65;;
60880;SDS011;46729;43.010;24.320;2022-08-07T09:37:06;11.82;;;8.40;;
60880;SDS011;46729;43.010;24.320;2022-08-07T09:39:50;18.70;;;8.60;;
60880;SDS011;46729;43.010;24.320;2022-08-07T09:45:30;14.90;;;8.85;;
60880;SDS011;46729;43.010;24.320;2022-08-07T09:51:26;15.75;;;10.05;;
60880;SDS011;46729;43.010;24.320;2022-08-07T09:54:07;18.20;;;12.23;;
60880;SDS011;46729;43.010;24.320;2022-08-07T10:36:19;19.20;;;10.88;;
60880;SDS011;46729;43.010;24.320;2022-08-07T10:39:02;21.35;;;10.52;;
60880;SDS011;46729;43.010;24.320;2022-08-07T10:41:45;19.08;;;10.70;;
60880;SDS011;46729;43.010;24.320;2022-08-07T10:45:30;13.73;;;10.10;;
60880;SDS011;46729;43.010;24.320;2022-08-07T10:50:33;19.75;;;12.43;;
60880;SDS011;46729;43.010;24.320;2022-08-07T11:14:19;17.80;;;11.68;;
60880;SDS011;46729;43.010;24.320;2022-08-07T11:16:51;13.05;;;9.77;;
60880;SDS011;46729;43.010;24.320;2022-08-07T11:19:38;15.80;;;9.18;;
60880;SDS011;46729;43.010;24.320;2022-08-07T11:22:09;18.58;;;13.38;;
60880;SDS011;46729;43.010;24.320;2022-08-07T11:30:34;19.55;;;11.27;;
60880;SDS011;46729;43.010;24.320;2022-08-07T11:42:24;11.52;;;9.02;;
60880;SDS011;46729;43.010;24.320;2022-08-07T12:00:30;16.10;;;11.13;;
60880;SDS011;46729;43.010;24.320;2022-08-07T12:12:35;19.30;;;9.60;;
60880;SDS011;46729;43.010;24.320;2022-08-07T12:15:22;21.23;;;10.70;;
60880;SDS011;46729;43.010;24.320;2022-08-07T12:27:39;15.57;;;10.32;;
60880;SDS011;46729;43.010;24.320;2022-08-07T12:30:13;23.13;;;10.60;;
60880;SDS011;46729;43.010;24.320;2022-08-07T12:32:42;32.58;;;10.30;;
60880;SDS011;46729;43.010;24.320;2022-08-07T12:35:14;16.30;;;9.32;;
60880;SDS011;46729;43.010;24.320;2022-08-07T12:37:42;13.43;;;8.68;;
60880;SDS011;46729;43.010;24.320;2022-08-07T12:40:11;13.48;;;9.07;;
60880;SDS011;46729;43.010;24.320;2022-08-07T12:42:40;12.35;;;9.18;;
60880;SDS011;46729;43.010;24.320;2022-08-07T12:45:17;10.15;;;7.93;;
60880;SDS011;46729;43.010;24.320;2022-08-07T12:50:19;10.43;;;7.38;;
60880;SDS011;46729;43.010;24.320;2022-08-07T12:55:57;10.80;;;7.05;;
60880;SDS011;46729;43.010;24.320;2022-08-07T12:58:26;9.88;;;7.28;;
60880;SDS011;46729;43.010;24.320;2022-08-07T13:06:41;8.32;;;7.13;;
60880;SDS011;46729;43.010;24.320;2022-08-07T13:12:13;10.40;;;7.38;;
60880;SDS011;46729;43.010;24.320;2022-08-07T13:20:08;8.77;;;6.70;;
60880;SDS011;46729;43.010;24.320;2022-08-07T13:22:44;11.45;;;6.65;;
60880;SDS011;46729;43.010;24.320;2022-08-07T13:25:29;7.97;;;6.47;;
60880;SDS011;46729;43.010;24.320;2022-08-07T13:28:03;12.02;;;7.32;;
60880;SDS011;46729;43.010;24.320;2022-08-07T13:30:34;9.48;;;6.47;;
60880;SDS011;46729;43.010;24.320;2022-08-07T13:38:26;10.18;;;7.57;;
60880;SDS011;46729;43.010;24.320;2022-08-07T13:43:40;7.72;;;5.63;;
60880;SDS011;46729;43.010;24.320;2022-08-07T13:46:07;6.90;;;5.93;;
60880;SDS011;46729;43.010;24.320;2022-08-07T13:48:35;6.03;;;5.05;;
60880;SDS011;46729;43.010;24.320;2022-08-07T13:51:02;7.82;;;6.35;;
60880;SDS011;46729;43.010;24.320;2022-08-07T13:53:30;6.20;;;5.47;;
60880;SDS011;46729;43.010;24.320;2022-08-07T13:56:00;8.60;;;5.32;;
60880;SDS011;46729;43.010;24.320;2022-08-07T13:58:27;7.40;;;5.55;;
60880;SDS011;46729;43.010;24.320;2022-08-07T14:01:18;8.43;;;6.07;;
60880;SDS011;46729;43.010;24.320;2022-08-07T14:03:46;7.53;;;5.72;;
60880;SDS011;46729;43.010;24.320;2022-08-07T14:06:13;8.32;;;5.75;;
60880;SDS011;46729;43.010;24.320;2022-08-07T14:08:48;7.93;;;6.05;;
60880;SDS011;46729;43.010;24.320;2022-08-07T14:11:20;6.70;;;5.85;;
60880;SDS011;46729;43.010;24.320;2022-08-07T14:13:51;7.17;;;5.80;;
60880;SDS011;46729;43.010;24.320;2022-08-07T14:16:28;10.85;;;5.60;;
60880;SDS011;46729;43.010;24.320;2022-08-07T14:19:00;9.65;;;5.60;;
60880;SDS011;46729;43.010;24.320;2022-08-07T14:21:32;13.32;;;6.30;;
60880;SDS011;46729;43.010;24.320;2022-08-07T14:24:07;10.40;;;6.03;;
60880;SDS011;46729;43.010;24.320;2022-08-07T14:26:42;8.45;;;5.50;;
60880;SDS011;46729;43.010;24.320;2022-08-07T14:29:16;6.10;;;5.47;;
60880;SDS011;46729;43.010;24.320;2022-08-07T14:31:44;9.50;;;5.68;;
60880;SDS011;46729;43.010;24.320;2022-08-07T14:34:14;7.07;;;6.20;;
60880;SDS011;46729;43.010;24.320;2022-08-07T14:36:46;8.23;;;5.47;;
60880;SDS011;46729;43.010;24.320;2022-08-07T14:39:13;6.50;;;5.57;;
60880;SDS011;46729;43.010;24.320;2022-08-07T14:41:40;7.05;;;6.35;;
60880;SDS011;46729;43.010;24.320;2022-08-07T14:44:08;6.78;;;5.53;;
60880;SDS011;46729;43.010;24.320;2022-08-07T14:46:36;7.88;;;5.65;;
60880;SDS011;46729;43.010;24.320;2022-08-07T14:49:03;9.10;;;5.38;;
60880;SDS011;46729;43.010;24.320;2022-08-07T14:51:31;7.47;;;5.50;;
60880;SDS011;46729;43.010;24.320;2022-08-07T14:53:59;12.13;;;5.45;;
60880;SDS011;46729;43.010;24.320;2022-08-07T14:56:27;6.97;;;5.50;;
60880;SDS011;46729;43.010;24.320;2022-08-07T14:58:59;8.23;;;5.63;;
60880;SDS011;46729;43.010;24.320;2022-08-07T15:01:31;7.30;;;5.43;;
60880;SDS011;46729;43.010;24.320;2022-08-07T15:04:02;8.43;;;5.70;;
60880;SDS011;46729;43.010;24.320;2022-08-07T15:06:30;10.35;;;5.47;;
60880;SDS011;46729;43.010;24.320;2022-08-07T15:09:08;9.30;;;5.72;;
60880;SDS011;46729;43.010;24.320;2022-08-07T15:11:38;11.77;;;5.07;;
60880;SDS011;46729;43.010;24.320;2022-08-07T15:14:07;8.30;;;5.30;;
60880;SDS011;46729;43.010;24.320;2022-08-07T15:19:47;5.20;;;4.43;;
60880;SDS011;46729;43.010;24.320;2022-08-07T15:22:17;5.05;;;4.55;;
60880;SDS011;46729;43.010;24.320;2022-08-07T15:24:46;6.65;;;5.32;;
60880;SDS011;46729;43.010;24.320;2022-08-07T15:27:15;10.23;;;4.30;;
60880;SDS011;46729;43.010;24.320;2022-08-07T15:29:49;5.88;;;4.63;;
60880;SDS011;46729;43.010;24.320;2022-08-07T15:34:45;5.95;;;5.35;;
60880;SDS011;46729;43.010;24.320;2022-08-07T15:37:17;8.88;;;5.20;;
60880;SDS011;46729;43.010;24.320;2022-08-07T15:39:46;7.75;;;5.28;;
60880;SDS011;46729;43.010;24.320;2022-08-07T15:45:05;7.15;;;5.13;;
60880;SDS011;46729;43.010;24.320;2022-08-07T15:47:36;5.93;;;5.28;;
60880;SDS011;46729;43.010;24.320;2022-08-07T15:50:04;7.95;;;6.18;;
60880;SDS011;46729;43.010;24.320;2022-08-07T15:52:33;8.23;;;5.70;;
60880;SDS011;46729;43.010;24.320;2022-08-07T15:55:02;13.20;;;5.60;;
60880;SDS011;46729;43.010;24.320;2022-08-07T15:57:31;13.43;;;6.25;;
60880;SDS011;46729;43.010;24.320;2022-08-07T15:59:59;10.93;;;5.70;;
60880;SDS011;46729;43.010;24.320;2022-08-07T16:02:27;12.00;;;6.72;;
60880;SDS011;46729;43.010;24.320;2022-08-07T16:04:59;11.00;;;6.25;;
60880;SDS011;46729;43.010;24.320;2022-08-07T16:07:30;9.63;;;7.10;;
60880;SDS011;46729;43.010;24.320;2022-08-07T16:10:12;9.57;;;7.07;;
60880;SDS011;46729;43.010;24.320;2022-08-07T16:12:47;9.05;;;7.28;;
60880;SDS011;46729;43.010;24.320;2022-08-07T16:15:36;10.05;;;7.38;;
60880;SDS011;46729;43.010;24.320;2022-08-07T16:32:13;11.18;;;7.82;;
60880;SDS011;46729;43.010;24.320;2022-08-07T16:34:56;15.52;;;8.25;;
60880;SDS011;46729;43.010;24.320;2022-08-07T16:37:49;9.73;;;8.27;;
60880;SDS011;46729;43.010;24.320;2022-08-07T16:40:43;9.98;;;7.95;;
60880;SDS011;46729;43.010;24.320;2022-08-07T16:43:39;11.73;;;7.75;;
60880;SDS011;46729;43.010;24.320;2022-08-07T16:49:44;7.70;;;6.93;;
60880;SDS011;46729;43.010;24.320;2022-08-07T16:52:25;8.32;;;7.40;;
60880;SDS011;46729;43.010;24.320;2022-08-07T17:00:17;12.00;;;7.47;;
60880;SDS011;46729;43.010;24.320;2022-08-07T17:07:57;11.88;;;7.10;;
60880;SDS011;46729;43.010;24.320;2022-08-07T17:10:32;10.75;;;6.65;;
60880;SDS011;46729;43.010;24.320;2022-08-07T17:21:17;8.77;;;6.45;;
60880;SDS011;46729;43.010;24.320;2022-08-07T17:29:35;6.35;;;5.60;;
60880;SDS011;46729;43.010;24.320;2022-08-07T17:32:08;8.27;;;5.75;;
60880;SDS011;46729;43.010;24.320;2022-08-07T17:34:37;7.93;;;5.28;;
60880;SDS011;46729;43.010;24.320;2022-08-07T17:37:10;10.20;;;5.75;;
60880;SDS011;46729;43.010;24.320;2022-08-07T17:40:01;5.85;;;4.90;;
60880;SDS011;46729;43.010;24.320;2022-08-07T17:45:03;6.47;;;5.45;;
60880;SDS011;46729;43.010;24.320;2022-08-07T17:56:21;8.80;;;5.53;;
60880;SDS011;46729;43.010;24.320;2022-08-07T18:01:23;10.25;;;5.07;;
60880;SDS011;46729;43.010;24.320;2022-08-07T18:04:36;6.03;;;4.80;;
60880;SDS011;46729;43.010;24.320;2022-08-07T18:10:02;6.07;;;5.47;;
60880;SDS011;46729;43.010;24.320;2022-08-07T18:12:39;6.75;;;5.28;;
60880;SDS011;46729;43.010;24.320;2022-08-07T18:15:20;8.25;;;5.20;;
60880;SDS011;46729;43.010;24.320;2022-08-07T18:17:51;5.78;;;5.07;;
60880;SDS011;46729;43.010;24.320;2022-08-07T18:20:27;11.05;;;5.25;;
60880;SDS011;46729;43.010;24.320;2022-08-07T18:23:01;7.35;;;5.43;;
60880;SDS011;46729;43.010;24.320;2022-08-07T18:25:30;6.03;;;4.55;;
60880;SDS011;46729;43.010;24.320;2022-08-07T18:28:03;10.00;;;5.32;;
60880;SDS011;46729;43.010;24.320;2022-08-07T18:38:44;6.32;;;5.07;;
60880;SDS011;46729;43.010;24.320;2022-08-07T18:41:30;5.97;;;5.15;;
60880;SDS011;46729;43.010;24.320;2022-08-07T18:44:22;7.07;;;6.10;;
60880;SDS011;46729;43.010;24.320;2022-08-07T18:46:59;7.57;;;5.03;;
60880;SDS011;46729;43.010;24.320;2022-08-07T18:49:47;10.63;;;5.45;;
60880;SDS011;46729;43.010;24.320;2022-08-07T18:52:38;7.72;;;5.25;;
60880;SDS011;46729;43.010;24.320;2022-08-07T18:55:24;11.00;;;5.30;;
60880;SDS011;46729;43.010;24.320;2022-08-07T18:58:24;5.82;;;5.22;;
60880;SDS011;46729;43.010;24.320;2022-08-07T19:01:10;5.90;;;4.85;;
60880;SDS011;46729;43.010;24.320;2022-08-07T19:03:47;8.27;;;5.05;;
60880;SDS011;46729;43.010;24.320;2022-08-07T19:06:29;7.05;;;5.35;;
60880;SDS011;46729;43.010;24.320;2022-08-07T19:09:08;5.25;;;4.50;;
60880;SDS011;46729;43.010;24.320;2022-08-07T19:11:56;6.10;;;5.20;;
60880;SDS011;46729;43.010;24.320;2022-08-07T19:17:28;6.28;;;5.55;;
60880;SDS011;46729;43.010;24.320;2022-08-07T19:20:06;8.15;;;5.85;;
60880;SDS011;46729;43.010;24.320;2022-08-07T19:25:33;12.52;;;6.05;;